Time;durP1;ratioP1;P1;durP2;ratioP2;P2;SDS_P1;SDS_P2;PMS_P1;PMS_P2;Temp;Humidity;BMP_temperature;BMP_pressure;BME280_temperature;BME280_humidity;BME280_pressure;Samples;Min_cycle;Max_cycle;Signal;HPM_P1;HPM_P2
2022/09/14 00:01:37;;;;;;;6.60;2.70;;;;;;;11.99;70.11;100124.13;10623803;27;20054;-73
2022/09/14 00:06:40;;;;;;;4.15;2.60;;;;;;;12.00;70.09;100117.50;10625492;27;20035;-76
2022/09/14 00:11:43;;;;;;;4.03;2.33;;;;;;;12.02;70.46;100118.00;10629471;27;20443;-76
2022/09/14 00:16:45;;;;;;;6.25;2.65;;;;;;;12.01;69.93;100121.06;10633617;27;20508;-76
2022/09/14 00:21:53;;;;;;;4.07;2.90;;;;;;;11.98;70.47;100108.75;10609302;27;20031;-76
2022/09/14 00:26:55;;;;;;;;;;;;;;;11.97;69.89;100095.28;10605754;27;20031;-76
2022/09/14 00:31:58;;;;;;;5.00;3.00;;;;;;;11.96;70.01;100096.41;10612834;27;19930;-76
2022/09/14 00:37:00;;;;;;;3.53;2.67;;;;;;;11.91;69.81;100100.06;10657599;27;20046;-76
2022/09/14 00:42:04;;;;;;;4.13;2.92;;;;;;;11.86;70.56;100094.66;10655287;27;20047;-76
2022/09/14 00:47:06;;;;;;;3.42;2.47;;;;;;;11.84;70.68;100090.59;10637504;27;20038;-76
2022/09/14 00:52:14;;;;;;;3.22;2.60;;;;;;;11.80;70.48;100086.78;10623371;27;20555;-76
2022/09/14 00:57:17;;;;;;;4.38;2.85;;;;;;;11.74;71.11;100086.88;10622501;27;20042;-76
2022/09/14 01:02:21;;;;;;;4.15;2.65;;;;;;;11.71;70.23;100089.41;10574409;27;20031;-76
2022/09/14 01:07:53;;;;;;;4.03;3.05;;;;;;;11.67;70.64;100074.66;10625522;27;20035;-76
2022/09/14 01:13:40;;;;;;;3.25;2.15;;;;;;;11.61;70.93;100073.09;10596231;27;20046;-76
2022/09/14 01:19:26;;;;;;;8.50;2.75;;;;;;;11.53;71.62;100069.13;10608121;27;20092;-76
2022/09/14 01:24:51;;;;;;;3.70;2.50;;;;;;;11.45;71.38;100067.88;10591547;27;20039;-76
2022/09/14 01:30:00;;;;;;;4.55;2.70;;;;;;;11.39;71.17;100066.31;10591289;27;20043;-76
2022/09/14 01:35:09;;;;;;;3.78;2.88;;;;;;;11.33;71.56;100062.03;10610745;27;20050;-76
2022/09/14 01:40:34;;;;;;;5.35;2.78;;;;;;;11.28;72.16;100047.56;10617044;27;20046;-76
2022/09/14 01:45:40;;;;;;;3.35;2.53;;;;;;;11.23;72.38;100050.38;10607523;27;20043;-75
2022/09/14 01:50:49;;;;;;;3.45;2.40;;;;;;;11.14;72.46;100039.28;10606405;27;20051;-75
2022/09/14 01:56:00;;;;;;;3.88;2.08;;;;;;;11.06;72.81;100029.78;10595717;27;20041;-75
2022/09/14 02:01:03;;;;;;;2.47;2.28;;;;;;;10.99;72.82;100026.63;10621130;27;20680;-75
2022/09/14 02:06:14;;;;;;;3.55;2.53;;;;;;;10.92;72.88;100020.66;10590762;27;20051;-76
2022/09/14 02:11:17;;;;;;;3.60;2.60;;;;;;;10.85;73.62;100012.81;10608208;27;20035;-76
2022/09/14 02:16:21;;;;;;;4.18;2.72;;;;;;;10.79;73.37;100013.22;10610837;27;20527;-77
2022/09/14 02:21:26;;;;;;;2.45;1.90;;;;;;;10.72;74.18;99999.84;10632736;27;20035;-78
2022/09/14 02:26:28;;;;;;;3.42;2.60;;;;;;;10.64;74.13;99999.72;10631139;27;20051;-75
2022/09/14 02:31:56;;;;;;;6.90;4.25;;;;;;;10.56;74.53;99995.69;10628042;27;20460;-78
2022/09/14 02:37:23;;;;;;;3.20;2.10;;;;;;;10.47;74.96;100003.78;10617664;27;20508;-77
2022/09/14 02:42:41;;;;;;;5.63;2.90;;;;;;;10.40;74.98;99989.63;10626844;27;20047;-77
2022/09/14 02:47:54;;;;;;;4.68;2.90;;;;;;;10.35;75.45;99986.94;10626508;27;20437;-77
2022/09/14 02:52:58;;;;;;;6.00;2.58;;;;;;;10.31;75.14;99990.59;10634351;27;20062;-77
2022/09/14 02:58:11;;;;;;;3.25;2.42;;;;;;;10.27;75.66;99990.38;10629751;27;20042;-77
2022/09/14 03:03:16;;;;;;;5.00;2.90;;;;;;;10.24;75.79;99989.03;10625019;27;20043;-77
2022/09/14 03:08:18;;;;;;;4.50;2.58;;;;;;;10.20;75.91;99974.22;10613357;27;20409;-77
2022/09/14 03:13:20;;;;;;;3.47;2.58;;;;;;;10.22;75.95;99960.25;10629978;27;20039;-77
2022/09/14 03:18:23;;;;;;;6.97;2.72;;;;;;;10.23;76.83;99957.22;10633724;27;20416;-77
2022/09/14 03:23:25;;;;;;;4.93;2.95;;;;;;;10.22;75.95;99952.03;10656135;27;20046;-76
2022/09/14 03:28:27;;;;;;;4.45;2.88;;;;;;;10.19;76.49;99944.38;10655498;27;20528;-77
2022/09/14 03:33:29;;;;;;;3.40;2.83;;;;;;;10.18;76.94;99932.59;10656281;27;20042;-77
2022/09/14 03:38:31;;;;;;;4.80;3.17;;;;;;;10.18;76.77;99916.13;10664550;27;20039;-77
2022/09/14 03:43:34;;;;;;;6.00;3.00;;;;;;;10.18;76.47;99915.31;10636457;27;20046;-76
2022/09/14 03:48:36;;;;;;;4.57;3.17;;;;;;;10.18;76.56;99926.28;10639408;27;20066;-76
2022/09/14 03:53:40;;;;;;;5.22;3.80;;;;;;;10.13;77.18;99934.59;10650482;27;20043;-76
2022/09/14 03:58:43;;;;;;;4.43;2.90;;;;;;;10.06;77.05;99931.38;10640589;27;20047;-76
2022/09/14 04:03:45;;;;;;;5.18;2.90;;;;;;;10.02;77.62;99933.91;10659611;27;20489;-77
2022/09/14 04:08:47;;;;;;;4.60;2.88;;;;;;;9.94;77.51;99927.16;10640776;27;20031;-76
2022/09/14 04:13:50;;;;;;;4.72;3.15;;;;;;;9.91;77.92;99927.75;10661718;27;20508;-77
2022/09/14 04:18:53;;;;;;;3.22;2.60;;;;;;;9.87;78.36;99931.34;10641809;27;20041;-76
2022/09/14 04:23:56;;;;;;;6.97;3.30;;;;;;;9.83;78.81;99928.41;10648828;27;20043;-75
2022/09/14 04:28:58;;;;;;;4.07;3.15;;;;;;;9.81;78.40;99921.59;10630080;27;20035;-76
2022/09/14 04:34:01;;;;;;;3.25;2.78;;;;;;;9.80;78.11;99923.50;10622491;27;20043;-76
2022/09/14 04:39:03;;;;;;;4.70;3.55;;;;;;;9.79;79.20;99921.88;10654735;27;20069;-76
2022/09/14 04:44:05;;;;;;;5.13;3.85;;;;;;;9.79;78.77;99913.66;10626117;27;20052;-77
2022/09/14 04:49:08;;;;;;;4.80;3.08;;;;;;;9.79;79.00;99913.66;10658078;27;20042;-77
2022/09/14 04:54:13;;;;;;;8.15;3.50;;;;;;;9.80;78.73;99915.28;10635753;27;20039;-76
2022/09/14 04:59:16;;;;;;;4.78;3.45;;;;;;;9.84;79.44;99913.59;10619955;27;20047;-76
2022/09/14 05:04:18;;;;;;;5.63;3.45;;;;;;;9.84;78.64;99908.09;10643486;27;20035;-76
2022/09/14 05:09:20;;;;;;;6.97;3.55;;;;;;;9.88;78.54;99900.09;10644809;27;20043;-76
2022/09/14 05:14:23;;;;;;;4.68;3.63;;;;;;;9.88;79.24;99903.66;10634146;27;20044;-75
2022/09/14 05:19:25;;;;;;;4.30;2.88;;;;;;;9.84;79.49;99915.50;10649984;27;20035;-75
2022/09/14 05:24:27;;;;;;;8.60;3.55;;;;;;;9.81;79.34;99902.41;10653853;27;20524;-75
2022/09/14 05:29:30;;;;;;;6.38;3.42;;;;;;;9.82;80.39;99904.84;10654433;27;20035;-75
2022/09/14 05:34:32;;;;;;;4.50;3.05;;;;;;;9.82;80.19;99906.78;10654064;27;20058;-76
2022/09/14 05:39:35;;;;;;;7.38;3.50;;;;;;;9.80;80.17;99901.59;10625915;27;20050;-75
2022/09/14 05:44:37;;;;;;;7.30;3.20;;;;;;;9.78;80.55;99897.50;10653455;27;20066;-76
2022/09/14 05:49:39;;;;;;;7.05;3.20;;;;;;;9.79;81.24;99894.47;10653178;27;20059;-75
2022/09/14 05:54:42;;;;;;;4.75;3.03;;;;;;;9.87;81.22;99896.56;10635852;28;20043;-76
2022/09/14 05:59:44;;;;;;;8.18;3.90;;;;;;;9.87;81.65;99896.56;10653367;28;20054;-75
2022/09/14 06:04:46;;;;;;;5.35;3.13;;;;;;;9.85;81.47;99879.59;10634857;28;20046;-75
2022/09/14 06:09:48;;;;;;;5.63;3.33;;;;;;;9.89;81.63;99885.28;10635310;28;20069;-75
2022/09/14 06:14:50;;;;;;;7.40;3.58;;;;;;;9.87;82.30;99882.84;10630095;28;20043;-75
2022/09/14 06:19:53;;;;;;;5.55;3.28;;;;;;;9.87;82.71;99876.56;10642489;28;20429;-77
2022/09/14 06:24:55;;;;;;;8.13;3.90;;;;;;;9.87;82.61;99876.56;10634541;28;20398;-76
2022/09/14 06:29:57;;;;;;;5.90;3.60;;;;;;;9.87;82.67;99882.84;10652609;28;20058;-74
2022/09/14 06:34:59;;;;;;;7.18;4.43;;;;;;;9.88;82.83;99884.47;10650786;28;20507;-77
2022/09/14 06:40:03;;;;;;;10.60;4.03;;;;;;;9.89;82.84;99880.66;10610515;28;20047;-77
2022/09/14 06:45:05;;;;;;;6.10;3.58;;;;;;;9.89;83.74;99879.81;10619070;28;20493;-77
2022/09/14 06:50:08;;;;;;;8.45;4.15;;;;;;;9.87;83.46;99876.56;10652900;28;20058;-77
2022/09/14 06:55:10;;;;;;;6.43;3.53;;;;;;;9.84;83.78;99874.41;10617917;28;20046;-77
2022/09/14 07:00:13;;;;;;;9.82;3.95;;;;;;;9.88;84.13;99873.50;10652309;27;20051;-76
2022/09/14 07:05:19;;;;;;;5.82;4.00;;;;;;;9.85;85.81;99873.31;10659768;27;20035;-76
2022/09/14 07:10:21;;;;;;;6.22;4.10;;;;;;;9.78;86.29;99876.41;10640724;27;20042;-76
2022/09/14 07:15:23;;;;;;;5.13;4.00;;;;;;;9.75;86.21;99867.97;10658053;27;20042;-75
2022/09/14 07:20:25;;;;;;;8.68;3.42;;;;;;;9.71;86.72;99864.97;10658077;27;20042;-75
2022/09/14 07:25:27;;;;;;;7.75;4.00;;;;;;;9.72;87.29;99866.66;10656256;27;20059;-74
2022/09/14 07:30:30;;;;;;;5.78;3.70;;;;;;;9.72;87.33;99861.16;10658446;27;20051;-74
2022/09/14 07:35:32;;;;;;;6.97;3.83;;;;;;;9.68;87.71;99857.34;10657504;27;20421;-74
2022/09/14 07:40:34;;;;;;;7.03;4.07;;;;;;;9.67;88.45;99853.00;10640396;27;20047;-74
2022/09/14 07:45:37;;;;;;;6.50;4.22;;;;;;;9.66;88.13;99854.91;10658894;27;20043;-76
2022/09/14 07:50:39;;;;;;;6.45;4.65;;;;;;;9.67;88.65;99855.72;10639645;27;20066;-76
2022/09/14 07:55:42;;;;;;;5.75;4.72;;;;;;;9.66;89.06;99849.44;10657967;27;20086;-76
2022/09/14 08:00:44;;;;;;;5.28;4.18;;;;;;;9.70;88.85;99844.19;10658345;27;20055;-76
2022/09/14 08:05:46;;;;;;;7.43;4.30;;;;;;;9.72;89.38;99835.66;10651126;27;20054;-76
2022/09/14 08:10:48;;;;;;;7.07;4.50;;;;;;;9.74;89.35;99836.22;10621597;27;20556;-76
2022/09/14 08:15:50;;;;;;;6.00;4.00;;;;;;;9.82;89.40;99835.53;10657311;27;20390;-76
2022/09/14 08:20:53;;;;;;;7.55;4.25;;;;;;;9.87;89.54;99833.53;10638918;27;20095;-76
2022/09/14 08:25:55;;;;;;;6.75;4.30;;;;;;;9.97;89.48;99841.63;10656997;27;20054;-76
2022/09/14 08:31:11;;;;;;;7.05;3.88;;;;;;;10.09;89.49;99834.88;10649063;27;20042;-76
2022/09/14 08:36:17;;;;;;;8.00;4.32;;;;;;;10.16;89.70;99829.81;10636922;27;20047;-76
2022/09/14 08:41:29;;;;;;;5.13;3.78;;;;;;;10.22;89.89;99825.91;10637882;27;20054;-76
2022/09/14 08:46:39;;;;;;;6.10;3.63;;;;;;;10.27;88.98;99812.94;10638603;27;20042;-77
2022/09/14 08:51:41;;;;;;;6.13;3.63;;;;;;;10.37;88.08;99814.69;10637511;27;20061;-76
2022/09/14 08:56:47;;;;;;;6.50;3.97;;;;;;;10.47;88.32;99808.22;10656576;27;20035;-76
2022/09/14 09:02:02;;;;;;;4.60;3.63;;;;;;;10.56;87.82;99807.22;10636367;27;20835;-76
2022/09/14 09:07:11;;;;;;;4.63;3.33;;;;;;;10.66;87.32;99802.69;10636674;27;20038;-76
2022/09/14 09:12:22;;;;;;;4.75;3.72;;;;;;;10.70;86.50;99795.47;10654821;27;20043;-75
2022/09/14 09:17:38;;;;;;;6.00;3.45;;;;;;;10.76;85.72;99788.75;10654168;27;20043;-76
2022/09/14 09:22:43;;;;;;;6.75;3.30;;;;;;;10.84;84.62;99774.34;10636433;27;20039;-76
2022/09/14 09:27:46;;;;;;;4.40;3.20;;;;;;;10.96;84.09;99769.19;10636160;27;20413;-76
2022/09/14 09:32:48;;;;;;;4.47;3.08;;;;;;;11.08;83.40;99772.22;10653962;27;20039;-76
2022/09/14 09:38:25;;;;;;;6.10;3.60;;;;;;;11.31;82.78;99761.34;10613132;27;20054;-76
2022/09/14 09:43:27;;;;;;;5.13;2.83;;;;;;;11.47;81.79;99748.88;10636250;27;20516;-76
2022/09/14 09:48:44;;;;;;;5.75;3.40;;;;;;;11.60;80.56;99753.50;10654064;27;20043;-76
2022/09/14 09:53:51;;;;;;;5.72;3.10;;;;;;;11.71;78.77;99754.91;10617116;27;20057;-76
2022/09/14 09:58:54;;;;;;;10.25;3.90;;;;;;;11.75;77.44;99744.13;10619046;28;20047;-76
2022/09/14 10:04:19;;;;;;;5.78;3.47;;;;;;;11.84;76.96;99742.28;10653369;28;20519;-76
2022/09/14 10:09:25;;;;;;;4.63;3.38;;;;;;;11.96;76.42;99747.22;10634570;28;20035;-74
2022/09/14 10:14:30;;;;;;;6.57;3.67;;;;;;;12.06;75.83;99739.53;10635479;28;20532;-74
2022/09/14 10:19:33;;;;;;;4.50;2.97;;;;;;;12.13;74.98;99733.59;10635256;28;20038;-74
2022/09/14 10:24:36;;;;;;;4.75;3.28;;;;;;;12.18;75.53;99727.97;10653040;28;20043;-74
2022/09/14 10:29:41;;;;;;;4.82;3.65;;;;;;;12.19;74.79;99724.09;10653014;28;20046;-75
2022/09/14 10:34:44;;;;;;;5.40;3.78;;;;;;;12.23;74.12;99713.28;10648999;27;20066;-74
2022/09/14 10:40:05;;;;;;;7.18;3.55;;;;;;;12.29;73.80;99709.25;10659358;27;20050;-74
2022/09/14 10:45:07;;;;;;;6.25;3.80;;;;;;;12.30;73.09;99703.44;10663873;27;20520;-74
2022/09/14 10:50:40;;;;;;;5.97;3.55;;;;;;;12.39;73.53;99698.00;10659687;27;20501;-74
2022/09/14 10:56:11;;;;;;;6.22;3.70;;;;;;;12.54;72.85;99700.34;10666592;27;20043;-74
2022/09/14 11:01:34;;;;;;;5.90;3.60;;;;;;;12.62;72.47;99707.81;10601291;27;20043;-74
2022/09/14 11:06:42;;;;;;;5.93;4.35;;;;;;;12.69;72.24;99688.09;10660478;27;20039;-74
2022/09/14 11:11:53;;;;;;;5.25;3.28;;;;;;;12.75;72.89;99686.81;10640441;27;20509;-74
2022/09/14 11:17:20;;;;;;;3.85;3.08;;;;;;;12.74;72.64;99687.94;10657961;27;20063;-74
2022/09/14 11:22:26;;;;;;;;;;;;;;;12.63;73.24;99684.66;10633333;27;20051;-73
2022/09/14 11:27:39;;;;;;;4.88;2.70;;;;;;;12.59;74.64;99685.63;10663683;27;19915;-73
2022/09/14 11:32:45;;;;;;;3.95;3.05;;;;;;;12.58;75.76;99689.50;10651824;27;20046;-73
2022/09/14 11:37:57;;;;;;;5.00;2.88;;;;;;;12.45;76.10;99688.47;10656432;27;20485;-73
2022/09/14 11:43:14;;;;;;;3.40;2.97;;;;;;;12.29;76.96;99684.50;10668790;27;20057;-74
2022/09/14 11:48:20;;;;;;;4.00;3.08;;;;;;;12.17;78.07;99687.03;10658000;27;20043;-73
2022/09/14 11:53:23;;;;;;;3.50;3.20;;;;;;;12.00;79.25;99683.06;10657519;27;20054;-73
2022/09/14 11:58:28;;;;;;;4.43;2.78;;;;;;;11.87;78.82;99663.88;10635914;27;20042;-73
2022/09/14 12:03:52;;;;;;;3.33;2.58;;;;;;;11.80;77.98;99669.78;10641228;27;20058;-73
2022/09/14 12:09:21;;;;;;;3.40;2.67;;;;;;;11.79;78.80;99668.19;10654348;27;20031;-73
2022/09/14 12:14:25;;;;;;;6.07;3.13;;;;;;;11.89;78.99;99664.38;10680767;27;20054;-73
2022/09/14 12:19:27;;;;;;;4.55;2.83;;;;;;;11.93;79.60;99662.63;10666606;27;20501;-73
2022/09/14 12:24:29;;;;;;;6.30;3.30;;;;;;;12.00;78.75;99652.81;10648964;27;20440;-73
2022/09/14 12:29:33;;;;;;;5.93;3.15;;;;;;;12.06;80.59;99642.47;10641011;27;20043;-73
2022/09/14 12:34:35;;;;;;;4.25;2.97;;;;;;;12.14;80.90;99646.41;10655118;27;20058;-74
2022/09/14 12:39:37;;;;;;;7.78;4.00;;;;;;;12.16;80.96;99638.66;10682860;27;20047;-73
2022/09/14 12:44:42;;;;;;;4.45;3.20;;;;;;;12.12;80.67;99630.22;10644181;27;20044;-74
2022/09/14 12:49:45;;;;;;;3.58;2.80;;;;;;;12.07;80.63;99635.84;10632127;27;20520;-73
2022/09/14 12:55:09;;;;;;;4.88;2.90;;;;;;;12.02;79.76;99633.25;10654381;27;20062;-73
2022/09/14 13:00:15;;;;;;;5.30;3.22;;;;;;;12.01;79.11;99626.94;10649996;27;20050;-73
2022/09/14 13:05:22;;;;;;;4.05;3.13;;;;;;;12.03;79.21;99621.13;10644902;27;20047;-73
2022/09/14 13:10:33;;;;;;;4.93;2.87;;;;;;;12.01;78.78;99612.38;10654114;27;20043;-73
2022/09/14 13:15:49;;;;;;;3.33;2.75;;;;;;;12.05;78.48;99607.88;10653303;27;20054;-73
2022/09/14 13:20:54;;;;;;;3.75;2.97;;;;;;;12.06;77.28;99624.03;10653369;27;20043;-73
2022/09/14 13:25:57;;;;;;;5.63;3.20;;;;;;;12.06;77.37;99604.78;10654213;27;20054;-73
2022/09/14 13:31:00;;;;;;;6.45;3.22;;;;;;;12.07;77.19;99602.84;10630573;27;20035;-73
2022/09/14 13:36:03;;;;;;;4.30;3.00;;;;;;;12.13;76.45;99590.59;10635093;27;20035;-73
2022/09/14 13:41:09;;;;;;;6.47;3.40;;;;;;;12.20;76.55;99596.47;10631617;27;20066;-73
2022/09/14 13:46:12;;;;;;;4.20;2.95;;;;;;;12.25;76.55;99595.50;10614949;27;20048;-74
2022/09/14 13:51:14;;;;;;;4.68;2.90;;;;;;;12.26;77.57;99594.38;10628885;27;20046;-74
2022/09/14 13:56:19;;;;;;;4.40;3.13;;;;;;;12.29;76.94;99588.22;10653594;27;20062;-74
2022/09/14 14:01:26;;;;;;;4.60;3.15;;;;;;;12.33;77.24;99586.47;10653672;28;20043;-73
2022/09/14 14:06:31;;;;;;;4.43;3.35;;;;;;;12.44;76.21;99589.72;10634972;28;20051;-73
2022/09/14 14:11:36;;;;;;;3.83;2.75;;;;;;;12.45;75.45;99586.66;10638720;27;20047;-74
2022/09/14 14:16:39;;;;;;;4.78;3.08;;;;;;;12.42;75.68;99586.50;10662257;27;20055;-73
2022/09/14 14:21:41;;;;;;;3.63;2.95;;;;;;;12.40;74.29;99578.56;10643513;27;20051;-73
2022/09/14 14:26:52;;;;;;;3.28;2.88;;;;;;;12.37;74.78;99565.44;10642714;27;20409;-73
2022/09/14 14:31:55;;;;;;;5.13;3.10;;;;;;;12.35;75.94;99565.78;10657827;27;20070;-73
2022/09/14 14:36:57;;;;;;;4.25;3.42;;;;;;;12.32;76.17;99571.06;10639697;27;20046;-74
2022/09/14 14:42:00;;;;;;;4.32;3.30;;;;;;;12.24;76.77;99561.69;10660524;27;20047;-77
2022/09/14 14:47:04;;;;;;;4.28;3.22;;;;;;;12.15;77.12;99560.84;10606685;27;20050;-73
2022/09/14 14:52:08;;;;;;;4.93;3.63;;;;;;;12.12;77.82;99558.72;10674711;27;20054;-74
2022/09/14 14:57:10;;;;;;;5.80;3.88;;;;;;;12.09;78.74;99556.59;10637897;27;20035;-73
2022/09/14 15:02:12;;;;;;;6.22;3.22;;;;;;;12.02;79.05;99559.00;10631848;27;20051;-73
2022/09/14 15:07:15;;;;;;;5.13;4.00;;;;;;;11.93;79.81;99561.72;10655846;27;20050;-73
2022/09/14 15:12:18;;;;;;;5.30;4.00;;;;;;;11.82;80.57;99559.56;10642010;27;20035;-73
2022/09/14 15:17:20;;;;;;;4.40;3.08;;;;;;;11.74;81.41;99550.09;10656882;27;20031;-73
2022/09/14 15:22:22;;;;;;;7.82;3.67;;;;;;;11.68;81.49;99549.44;10656153;27;20641;-73
2022/09/14 15:27:24;;;;;;;12.27;5.60;;;;;;;11.67;81.48;99549.75;10672470;27;20054;-74
2022/09/14 15:32:27;;;;;;;6.68;4.63;;;;;;;11.63;81.73;99549.59;10656965;27;20440;-73
2022/09/14 15:37:29;;;;;;;3.95;3.08;;;;;;;11.60;82.20;99549.38;10648258;27;20050;-73
2022/09/14 15:42:31;;;;;;;6.97;4.30;;;;;;;11.60;81.88;99541.13;10659253;27;20047;-73
2022/09/14 15:47:33;;;;;;;7.22;3.70;;;;;;;11.53;82.44;99530.59;10658457;27;20050;-73
2022/09/14 15:52:37;;;;;;;7.53;4.50;;;;;;;11.51;82.27;99527.34;10657540;27;20043;-73
2022/09/14 15:57:39;;;;;;;5.90;3.78;;;;;;;11.50;82.76;99522.19;10657797;27;20058;-73
2022/09/14 16:02:41;;;;;;;7.10;4.60;;;;;;;11.48;82.68;99517.81;10651344;27;20035;-73
2022/09/14 16:07:44;;;;;;;8.40;4.28;;;;;;;11.44;83.06;99527.78;10656602;27;20417;-73
2022/09/14 16:12:46;;;;;;;6.72;4.80;;;;;;;11.43;83.21;99517.13;10655064;27;20062;-73
2022/09/14 16:17:52;;;;;;;8.25;5.10;;;;;;;11.41;83.01;99524.84;10654510;27;20043;-73
2022/09/14 16:22:55;;;;;;;5.53;3.78;;;;;;;11.35;82.33;99526.13;10654969;27;20039;-73
2022/09/14 16:27:57;;;;;;;5.65;3.75;;;;;;;11.27;82.75;99519.44;10641754;27;20039;-73
2022/09/14 16:33:03;;;;;;;6.88;4.22;;;;;;;11.22;83.59;99522.31;10664325;27;20047;-73
2022/09/14 16:38:05;;;;;;;4.88;4.10;;;;;;;11.11;84.96;99519.03;10642093;27;20046;-73
2022/09/14 16:43:08;;;;;;;4.97;3.03;;;;;;;11.00;85.61;99514.91;10654822;27;20038;-71
2022/09/14 16:48:10;;;;;;;6.82;4.38;;;;;;;10.89;85.48;99510.75;10639638;27;20050;-71
2022/09/14 16:53:12;;;;;;;4.57;3.80;;;;;;;10.83;86.36;99510.09;10652107;27;20051;-71
2022/09/14 16:58:15;;;;;;;6.05;3.85;;;;;;;10.77;86.92;99499.53;10654978;27;20046;-71
2022/09/14 17:03:17;;;;;;;5.47;3.78;;;;;;;10.74;87.80;99505.63;10651027;27;20505;-71
2022/09/14 17:08:19;;;;;;;6.50;4.07;;;;;;;10.69;88.09;99500.25;10653006;27;20042;-71
2022/09/14 17:13:22;;;;;;;5.95;3.88;;;;;;;10.66;88.58;99492.66;10655786;27;20559;-71
2022/09/14 17:18:24;;;;;;;6.50;4.00;;;;;;;10.61;89.00;99484.56;10652194;27;20062;-71
2022/09/14 17:23:27;;;;;;;8.02;4.90;;;;;;;10.58;90.06;99475.81;10651740;27;20047;-71
2022/09/14 17:28:32;;;;;;;7.38;4.10;;;;;;;10.54;90.07;99468.50;10650241;27;20043;-70
2022/09/14 17:33:34;;;;;;;5.70;4.00;;;;;;;10.50;90.12;99470.25;10632811;27;20030;-70
2022/09/14 17:38:40;;;;;;;5.15;4.43;;;;;;;10.50;90.85;99465.56;10633504;27;20062;-70
2022/09/14 17:43:42;;;;;;;5.47;4.10;;;;;;;10.52;91.15;99457.84;10634176;27;20412;-70
2022/09/14 17:48:44;;;;;;;9.32;4.28;;;;;;;10.60;91.61;99455.50;10648562;27;20031;-70
2022/09/14 17:53:51;;;;;;;7.43;5.45;;;;;;;10.61;91.60;99451.63;10651992;27;20433;-72
2022/09/14 17:59:04;;;;;;;6.47;4.90;;;;;;;10.60;92.02;99455.50;10616760;28;20035;-71
2022/09/14 18:04:09;;;;;;;9.77;4.60;;;;;;;10.59;92.04;99451.94;10653344;28;20078;-71
2022/09/14 18:09:15;;;;;;;5.18;3.72;;;;;;;10.62;92.26;99450.53;10643607;28;20122;-71
2022/09/14 18:14:17;;;;;;;3.28;2.60;;;;;;;10.62;92.66;99442.28;10633114;27;20047;-71
2022/09/14 18:19:20;;;;;;;6.00;4.22;;;;;;;10.67;91.87;99439.41;10653135;27;20051;-71
2022/09/14 18:24:22;;;;;;;8.05;4.78;;;;;;;10.66;92.44;99435.06;10650717;27;20035;-71
2022/09/14 18:29:24;;;;;;;8.90;4.25;;;;;;;10.63;91.81;99428.25;10644854;27;20047;-71
2022/09/14 18:34:27;;;;;;;5.80;4.25;;;;;;;10.58;92.30;99426.44;10674313;27;20054;-71
2022/09/14 18:39:30;;;;;;;7.32;4.53;;;;;;;10.58;91.80;99437.41;10634870;27;20039;-71
2022/09/14 18:44:32;;;;;;;5.43;4.22;;;;;;;10.57;91.19;99429.47;10652781;28;20042;-71
2022/09/14 18:49:34;;;;;;;7.05;4.80;;;;;;;10.61;92.10;99424.22;10657216;27;20042;-71
2022/09/14 18:54:37;;;;;;;11.90;7.00;;;;;;;10.65;91.75;99414.22;10650190;27;20050;-71
2022/09/14 18:59:39;;;;;;;6.90;5.07;;;;;;;10.72;92.13;99414.59;10655927;27;20061;-71
2022/09/14 19:04:41;;;;;;;5.85;4.15;;;;;;;10.73;91.70;99391.50;10660400;27;20043;-71
2022/09/14 19:09:43;;;;;;;4.80;3.83;;;;;;;10.77;91.51;99395.28;10659676;27;20039;-71
2022/09/14 19:14:45;;;;;;;9.77;4.93;;;;;;;10.76;91.90;99396.38;10639837;27;20528;-71
2022/09/14 19:19:53;;;;;;;7.85;4.80;;;;;;;10.72;91.21;99389.91;10641406;27;20047;-71
2022/09/14 19:24:55;;;;;;;15.07;9.50;;;;;;;10.75;91.54;99387.34;10656215;27;20050;-71
2022/09/14 19:29:59;;;;;;;8.60;4.80;;;;;;;10.71;91.81;99391.84;10656404;27;20417;-70
2022/09/14 19:35:05;;;;;;;6.38;4.38;;;;;;;10.63;91.55;99394.53;10642335;27;20062;-71
2022/09/14 19:40:09;;;;;;;3.45;2.38;;;;;;;10.53;92.14;99379.94;10658930;27;20106;-71
2022/09/14 19:45:13;;;;;;;4.85;3.90;;;;;;;10.51;92.39;99382.16;10658012;27;20049;-71
2022/09/14 19:50:16;;;;;;;6.05;3.67;;;;;;;10.50;92.37;99375.06;10654954;27;20531;-72
2022/09/14 19:55:18;;;;;;;4.55;3.60;;;;;;;10.45;92.43;99380.69;10656308;27;20034;-71
2022/09/14 20:00:20;;;;;;;6.35;3.50;;;;;;;10.50;92.49;99379.75;10653549;27;20050;-71
2022/09/14 20:05:22;;;;;;;4.65;3.00;;;;;;;10.53;91.99;99379.94;10650622;27;20042;-71
2022/09/14 20:10:25;;;;;;;5.78;3.58;;;;;;;10.56;92.80;99386.72;10651931;27;20035;-71
2022/09/14 20:15:28;;;;;;;3.33;1.65;;;;;;;10.52;92.30;99381.06;10635131;27;20062;-72
2022/09/14 20:20:30;;;;;;;4.50;3.03;;;;;;;10.55;92.29;99385.91;10634322;27;20031;-71
2022/09/14 20:25:33;;;;;;;5.85;3.45;;;;;;;10.63;92.46;99381.63;10635290;27;20055;-72
2022/09/14 20:30:35;;;;;;;5.63;3.72;;;;;;;10.62;91.95;99382.75;10662011;27;20050;-72
2022/09/14 20:35:37;;;;;;;4.28;3.03;;;;;;;10.55;92.44;99371.38;10657837;27;20557;-72
2022/09/14 20:40:39;;;;;;;4.63;3.30;;;;;;;10.53;92.19;99371.69;10657472;27;20517;-71
2022/09/14 20:45:41;;;;;;;5.90;3.33;;;;;;;10.50;91.68;99361.34;10653162;27;20040;-72
2022/09/14 20:50:51;;;;;;;5.85;3.05;;;;;;;10.58;91.34;99366.06;10641436;27;20050;-72
2022/09/14 20:55:59;;;;;;;4.60;3.15;;;;;;;10.56;91.56;99373.81;10620724;27;20070;-71
2022/09/14 21:01:09;;;;;;;5.53;3.65;;;;;;;10.53;91.89;99368.16;10649991;27;20039;-71
2022/09/14 21:06:17;;;;;;;5.57;3.53;;;;;;;10.52;92.02;99358.28;10621225;27;20046;-72
2022/09/14 21:11:21;;;;;;;3.97;3.55;;;;;;;10.48;91.92;99360.84;10621757;27;20050;-70
2022/09/14 21:16:33;;;;;;;5.18;3.30;;;;;;;10.47;91.57;99353.75;10619138;27;20048;-72
2022/09/14 21:21:36;;;;;;;4.60;3.60;;;;;;;10.46;91.42;99343.09;10608925;27;20040;-72
2022/09/14 21:26:39;;;;;;;4.97;3.40;;;;;;;10.45;91.74;99338.75;10611208;27;21930;-73
2022/09/14 21:31:42;;;;;;;4.80;4.20;;;;;;;10.40;91.54;99339.66;10621443;27;20525;-72
2022/09/14 21:36:48;;;;;;;4.15;3.10;;;;;;;10.40;91.51;99336.91;10605889;27;20043;-72
2022/09/14 21:41:56;;;;;;;4.25;3.20;;;;;;;10.37;91.81;99321.09;10627311;27;20047;-72
2022/09/14 21:46:59;;;;;;;3.67;3.13;;;;;;;10.40;91.17;99320.47;10623314;27;20039;-72
2022/09/14 21:52:01;;;;;;;4.10;2.70;;;;;;;10.38;91.74;99313.66;10642493;27;20054;-72
2022/09/14 21:57:05;;;;;;;4.13;3.38;;;;;;;10.40;91.97;99309.47;10641402;27;20047;-72
2022/09/14 22:02:08;;;;;;;4.28;3.13;;;;;;;10.43;91.20;99306.16;10637301;27;20034;-72
2022/09/14 22:07:10;;;;;;;4.78;3.17;;;;;;;10.41;91.46;99302.06;10625748;27;20039;-70
2022/09/14 22:12:13;;;;;;;6.45;3.28;;;;;;;10.33;91.31;99303.66;10619555;27;20043;-71
2022/09/14 22:17:19;;;;;;;6.75;3.53;;;;;;;10.32;91.36;99295.72;10620013;27;20036;-71
2022/09/14 22:22:21;;;;;;;5.50;2.53;;;;;;;10.31;91.17;99294.91;10605611;27;20051;-71
2022/09/14 22:27:23;;;;;;;3.80;3.40;;;;;;;10.35;91.66;99295.09;10618241;27;20067;-71
2022/09/14 22:32:26;;;;;;;3.47;2.83;;;;;;;10.38;91.32;99300.75;10623088;27;20055;-70
2022/09/14 22:37:28;;;;;;;3.83;2.97;;;;;;;10.36;91.37;99291.25;10633470;27;20039;-71
2022/09/14 22:42:31;;;;;;;3.92;2.95;;;;;;;10.38;90.75;99297.22;10618374;27;20059;-72
2022/09/14 22:47:33;;;;;;;3.63;3.05;;;;;;;10.36;90.72;99294.78;10628955;27;20046;-71
2022/09/14 22:52:35;;;;;;;4.43;3.08;;;;;;;10.38;90.60;99289.78;10631626;27;20050;-71
2022/09/14 22:57:37;;;;;;;3.45;2.63;;;;;;;10.36;90.98;99286.56;10642460;27;20031;-71
2022/09/14 23:02:39;;;;;;;5.20;2.80;;;;;;;10.35;90.18;99282.19;10626851;27;20035;-70
2022/09/14 23:08:11;;;;;;;4.68;2.80;;;;;;;10.33;90.82;99276.22;10634109;27;20421;-70
2022/09/14 23:13:14;;;;;;;4.15;2.75;;;;;;;10.32;91.06;99266.38;10628072;27;20141;-71
2022/09/14 23:18:16;;;;;;;4.00;3.15;;;;;;;10.30;90.43;99256.84;10626773;27;20062;-71
2022/09/14 23:23:19;;;;;;;5.10;2.97;;;;;;;10.26;90.97;99262.16;10625969;27;20051;-71
2022/09/14 23:28:21;;;;;;;2.92;2.45;;;;;;;10.23;90.68;99257.28;10629022;27;20042;-72
2022/09/14 23:33:24;;;;;;;4.38;2.70;;;;;;;10.20;90.98;99249.66;10611486;27;20400;-71
2022/09/14 23:38:26;;;;;;;2.70;2.38;;;;;;;10.21;91.00;99246.63;10615867;27;20054;-70
2022/09/14 23:43:29;;;;;;;4.97;2.78;;;;;;;10.25;90.68;99235.88;10627232;27;20051;-71